Time;durP1;ratioP1;P1;durP2;ratioP2;P2;SDS_P1;SDS_P2;PMS_P1;PMS_P2;Temp;Humidity;BMP_temperature;BMP_pressure;BME280_temperature;BME280_humidity;BME280_pressure;Samples;Min_cycle;Max_cycle;Signal;HPM_P1;HPM_P2
2021/07/26 00:02:03;;;;;;;;;8.50;7.00;;;;;-143.39;100.00;63593.47;4894266;29;45265;-83
2021/07/26 00:04:29;;;;;;;;;10.75;7.50;;;;;-143.39;100.00;63593.47;4889444;29;45554;-82
2021/07/26 00:06:54;;;;;;;;;8.00;5.75;;;;;-143.39;100.00;63593.47;4895270;29;45223;-82
2021/07/26 00:09:20;;;;;;;;;8.25;7.75;;;;;-143.39;100.00;63593.47;4893565;29;45285;-81
2021/07/26 00:11:45;;;;;;;;;8.75;7.00;;;;;-143.39;100.00;63593.47;4913680;29;45385;-82
2021/07/26 00:14:10;;;;;;;;;11.25;8.75;;;;;-143.39;100.00;63593.47;4884148;29;45375;-83
2021/07/26 00:16:36;;;;;;;;;10.50;7.75;;;;;-143.39;100.00;63593.47;4872652;29;46982;-82
2021/07/26 00:19:01;;;;;;;;;15.00;13.25;;;;;-143.39;100.00;63593.47;4890598;29;45307;-82
2021/07/26 00:21:27;;;;;;;;;7.75;7.00;;;;;-143.39;100.00;63593.47;4891151;29;45424;-82
2021/07/26 00:23:52;;;;;;;;;9.75;8.25;;;;;-143.39;100.00;63593.47;4903486;29;45304;-82
2021/07/26 00:26:17;;;;;;;;;13.00;10.25;;;;;-143.39;100.00;63593.47;4889535;29;46289;-82
2021/07/26 00:28:43;;;;;;;;;11.25;10.50;;;;;-143.39;100.00;63593.47;4873272;29;45475;-82
2021/07/26 00:31:08;;;;;;;;;13.00;13.00;;;;;-143.39;100.00;63593.47;4896400;29;45374;-82
2021/07/26 00:34:08;;;;;;;;;13.25;10.25;;;;;-143.39;100.00;63593.47;4891962;29;45329;-82
2021/07/26 00:36:34;;;;;;;;;15.50;12.00;;;;;-143.39;100.00;63593.47;4884300;29;45378;-83
2021/07/26 00:39:01;;;;;;;;;14.00;13.00;;;;;-143.39;100.00;63593.47;4885192;29;45596;-82
2021/07/26 00:41:26;;;;;;;;;13.75;13.25;;;;;-143.39;100.00;63593.47;4885377;29;45288;-82
2021/07/26 00:43:52;;;;;;;;;10.25;9.50;;;;;-143.39;100.00;63593.47;4885007;29;45359;-82
2021/07/26 00:46:17;;;;;;;;;15.50;11.00;;;;;-143.39;100.00;63593.47;4885521;29;45426;-83
2021/07/26 00:48:44;;;;;;;;;11.25;10.50;;;;;-143.39;100.00;63593.47;4885476;29;45232;-83
2021/07/26 00:51:11;;;;;;;;;12.00;10.00;;;;;-143.39;100.00;63593.47;4886387;29;45355;-83
2021/07/26 00:53:37;;;;;;;;;13.50;10.00;;;;;-143.39;100.00;63593.47;4885595;29;45403;-83
2021/07/26 00:56:03;;;;;;;;;13.50;9.75;;;;;-143.39;100.00;63593.47;4891057;29;45414;-83
2021/07/26 00:58:29;;;;;;;;;14.00;13.00;;;;;-143.39;100.00;63593.47;4886603;29;45431;-82
2021/07/26 01:00:55;;;;;;;;;10.00;10.00;;;;;-143.39;100.00;63593.47;4885259;29;45289;-83
2021/07/26 01:03:21;;;;;;;;;13.00;12.00;;;;;-143.39;100.00;63593.47;4884702;29;45516;-83
2021/07/26 01:05:47;;;;;;;;;15.50;14.00;;;;;-143.39;100.00;63593.47;4885150;29;45767;-83
2021/07/26 01:08:12;;;;;;;;;12.25;11.50;;;;;-143.39;100.00;63593.47;4884863;29;45474;-83
2021/07/26 01:10:37;;;;;;;;;16.50;15.00;;;;;-143.39;100.00;63593.47;4896733;29;45490;-83
2021/07/26 01:13:03;;;;;;;;;16.00;14.25;;;;;-143.39;100.00;63593.47;4901034;29;45388;-83
2021/07/26 01:15:28;;;;;;;;;17.75;14.25;;;;;-143.39;100.00;63593.47;4900469;29;48236;-83
2021/07/26 01:18:29;;;;;;;;;15.75;14.25;;;;;-143.39;100.00;63593.47;4885355;29;45486;-82
2021/07/26 01:21:06;;;;;;;;;20.75;18.00;;;;;-143.39;100.00;63593.47;4884789;29;45248;-83
2021/07/26 01:23:34;;;;;;;;;19.00;15.75;;;;;-143.39;100.00;63593.47;4884832;29;45457;-83
2021/07/26 01:26:01;;;;;;;;;18.50;16.50;;;;;-143.39;100.00;63593.47;4884635;29;45606;-83
2021/07/26 01:28:33;;;;;;;;;14.25;12.00;;;;;-143.39;100.00;63593.47;4884619;29;45236;-83
2021/07/26 01:30:59;;;;;;;;;16.25;12.00;;;;;-143.39;100.00;63593.47;4884644;29;45438;-83
2021/07/26 01:33:24;;;;;;;;;11.25;11.25;;;;;-143.39;100.00;63593.47;4884340;29;45445;-83
2021/07/26 01:35:50;;;;;;;;;15.25;10.50;;;;;-143.39;100.00;63593.47;4884625;29;46519;-82
2021/07/26 01:38:15;;;;;;;;;11.50;10.75;;;;;-143.39;100.00;63593.47;4885780;29;45209;-83
2021/07/26 01:40:41;;;;;;;;;8.50;7.50;;;;;-143.39;100.00;63593.47;4885017;29;45431;-83
2021/07/26 01:43:10;;;;;;;;;8.50;7.00;;;;;-143.39;100.00;63593.47;4884664;29;45497;-83
2021/07/26 01:45:38;;;;;;;;;11.75;8.75;;;;;-143.39;100.00;63593.47;4884454;29;46299;-83
2021/07/26 01:48:25;;;;;;;;;10.50;9.25;;;;;-143.39;100.00;63593.47;4887109;29;45505;-83
2021/07/26 01:50:53;;;;;;;;;12.25;10.50;;;;;-143.39;100.00;63593.47;4896027;29;45229;-83
2021/07/26 01:53:19;;;;;;;;;9.50;8.50;;;;;-143.39;100.00;63593.47;4906599;29;45264;-83
2021/07/26 01:55:44;;;;;;;;;13.25;9.75;;;;;-143.39;100.00;63593.47;4906695;29;46310;-83
2021/07/26 01:58:10;;;;;;;;;12.00;10.00;;;;;-143.39;100.00;63593.47;4892925;29;45407;-83
2021/07/26 02:00:35;;;;;;;;;14.50;10.00;;;;;-143.39;100.00;63593.47;4889286;29;45367;-83
2021/07/26 02:03:01;;;;;;;;;10.25;9.00;;;;;-143.39;100.00;63593.47;4887459;29;45239;-83
2021/07/26 02:05:27;;;;;;;;;11.25;11.00;;;;;-143.39;100.00;63593.47;4887501;29;46071;-83
2021/07/26 02:07:52;;;;;;;;;9.50;9.50;;;;;-143.39;100.00;63593.47;4887391;29;45358;-82
2021/07/26 02:10:18;;;;;;;;;9.75;9.00;;;;;-143.39;100.00;63593.47;4896714;29;45651;-82
2021/07/26 02:12:43;;;;;;;;;9.75;9.00;;;;;-143.39;100.00;63593.47;4904593;29;45606;-83
2021/07/26 02:15:09;;;;;;;;;13.50;8.75;;;;;-143.39;100.00;63593.47;4887515;29;46179;-83
2021/07/26 02:17:34;;;;;;;;;9.50;8.75;;;;;-143.39;100.00;63593.47;4887052;29;45390;-84
2021/07/26 02:20:00;;;;;;;;;10.50;8.75;;;;;-143.39;100.00;63593.47;4888163;29;45550;-83
2021/07/26 02:22:25;;;;;;;;;12.00;10.00;;;;;-143.39;100.00;63593.47;4887921;29;45510;-83
2021/07/26 02:24:50;;;;;;;;;8.75;7.75;;;;;-143.39;100.00;63593.47;4870861;29;49542;-82
2021/07/26 02:27:16;;;;;;;;;11.25;9.75;;;;;-143.39;100.00;63593.47;4887025;29;45269;-83
2021/07/26 02:29:41;;;;;;;;;14.00;9.00;;;;;-143.39;100.00;63593.47;4870630;29;45263;-82
2021/07/26 02:32:07;;;;;;;;;12.75;11.00;;;;;-143.39;100.00;63593.47;4887016;29;45363;-82
2021/07/26 02:34:32;;;;;;;;;11.00;10.50;;;;;-143.39;100.00;63593.47;4893721;29;46329;-83
2021/07/26 02:36:58;;;;;;;;;10.75;9.75;;;;;-143.39;100.00;63593.47;4892509;29;45232;-83
2021/07/26 02:39:24;;;;;;;;;12.00;10.25;;;;;-143.39;100.00;63593.47;4887542;29;45162;-83
2021/07/26 02:41:49;;;;;;;;;15.00;11.25;;;;;-143.39;100.00;63593.47;4887002;29;45234;-82
2021/07/26 02:44:14;;;;;;;;;13.25;11.50;;;;;-143.39;100.00;63593.47;4886490;29;47414;-83
2021/07/26 02:46:40;;;;;;;;;11.75;10.00;;;;;-143.39;100.00;63593.47;4888856;29;45306;-83
2021/07/26 02:49:05;;;;;;;;;16.75;12.25;;;;;-143.39;100.00;63593.47;4887476;29;45233;-83
2021/07/26 02:51:30;;;;;;;;;13.00;10.00;;;;;-143.39;100.00;63593.47;4869940;29;45798;-82
2021/07/26 02:53:56;;;;;;;;;11.75;10.50;;;;;-143.39;100.00;63593.47;4869696;29;47018;-83
2021/07/26 02:56:21;;;;;;;;;10.75;10.25;;;;;-143.39;100.00;63593.47;4895221;29;45413;-83
2021/07/26 02:58:47;;;;;;;;;11.00;9.75;;;;;-143.39;100.00;63593.47;4886793;29;45389;-83
2021/07/26 03:01:12;;;;;;;;;13.25;10.00;;;;;-143.39;100.00;63593.47;4886772;29;45430;-83
2021/07/26 03:03:38;;;;;;;;;18.75;13.50;;;;;-143.39;100.00;63593.47;4886187;29;45405;-82
2021/07/26 03:06:04;;;;;;;;;6.25;6.25;;;;;-143.39;100.00;63593.47;4885364;29;46200;-83
2021/07/26 03:08:30;;;;;;;;;13.25;10.50;;;;;-143.39;100.00;63593.47;4887354;29;45482;-84
2021/07/26 03:11:03;;;;;;;;;11.75;10.00;;;;;-143.39;100.00;63593.47;4901430;29;45278;-82
2021/07/26 03:13:31;;;;;;;;;12.00;9.50;;;;;-143.39;100.00;63593.47;4898243;29;45456;-82
2021/07/26 03:15:56;;;;;;;;;14.00;12.50;;;;;-143.39;100.00;63593.47;4886458;29;45890;-83
2021/07/26 03:18:22;;;;;;;;;15.00;13.50;;;;;-143.39;100.00;63593.47;4869335;29;45448;-83
2021/07/26 03:20:48;;;;;;;;;11.75;11.75;;;;;-143.39;100.00;63593.47;4886098;29;45477;-82
2021/07/26 03:23:14;;;;;;;;;15.75;14.00;;;;;-143.39;100.00;63593.47;4886623;29;45850;-83
2021/07/26 03:25:41;;;;;;;;;15.25;14.25;;;;;-143.39;100.00;63593.47;4886418;29;45455;-83
2021/07/26 03:28:07;;;;;;;;;9.50;9.50;;;;;-143.39;100.00;63593.47;4869702;29;45302;-84
2021/07/26 03:30:33;;;;;;;;;13.25;12.75;;;;;-143.39;100.00;63593.47;4887447;29;45590;-83
2021/07/26 03:32:59;;;;;;;;;17.50;14.50;;;;;-143.39;100.00;63593.47;4887819;29;46459;-83
2021/07/26 03:35:24;;;;;;;;;15.00;15.00;;;;;-143.39;100.00;63593.47;4886508;29;45475;-83
2021/07/26 03:37:51;;;;;;;;;19.00;13.00;;;;;-143.39;100.00;63593.47;4886720;29;45530;-83
2021/07/26 03:40:18;;;;;;;;;16.50;15.25;;;;;-143.39;100.00;63593.47;4886818;29;45465;-83
2021/07/26 03:42:44;;;;;;;;;15.25;13.00;;;;;-143.39;100.00;63593.47;4887041;29;46597;-83
2021/07/26 03:45:13;;;;;;;;;15.25;14.25;;;;;-143.39;100.00;63593.47;4886583;29;45233;-82
2021/07/26 03:47:39;;;;;;;;;16.50;12.75;;;;;-143.39;100.00;63593.47;4886931;29;45395;-83
2021/07/26 03:50:06;;;;;;;;;17.50;14.00;;;;;-143.39;100.00;63593.47;4886255;29;45467;-82
2021/07/26 03:52:48;;;;;;;;;20.75;15.00;;;;;-143.39;100.00;63593.47;4887810;29;47989;-83
2021/07/26 03:55:18;;;;;;;;;20.75;15.50;;;;;-143.39;100.00;63593.47;4887057;29;45248;-83
2021/07/26 03:57:44;;;;;;;;;19.50;16.00;;;;;-143.39;100.00;63593.47;4875866;29;45484;-83
2021/07/26 04:00:12;;;;;;;;;15.25;14.00;;;;;-143.39;100.00;63593.47;4885962;29;45238;-83
2021/07/26 04:02:38;;;;;;;;;19.25;14.75;;;;;-143.39;100.00;63593.47;4885589;29;45453;-83
2021/07/26 04:05:06;;;;;;;;;19.00;15.00;;;;;-143.39;100.00;63593.47;4885605;29;45403;-83
2021/07/26 04:07:35;;;;;;;;;15.25;14.25;;;;;-143.39;100.00;63593.47;4869062;29;45395;-83
2021/07/26 04:10:04;;;;;;;;;16.00;14.25;;;;;-143.39;100.00;63593.47;4875476;29;45554;-83
2021/07/26 04:12:32;;;;;;;;;21.25;16.50;;;;;-143.39;100.00;63593.47;4904386;29;46230;-83
2021/07/26 04:14:57;;;;;;;;;17.25;16.00;;;;;-143.39;100.00;63593.47;4886155;29;45263;-83
2021/07/26 04:17:23;;;;;;;;;19.50;15.75;;;;;-143.39;100.00;63593.47;4887368;29;45455;-83
2021/07/26 04:19:48;;;;;;;;;17.75;15.50;;;;;-143.39;100.00;63593.47;4886770;29;45455;-83
2021/07/26 04:22:13;;;;;;;;;15.00;14.75;;;;;-143.39;100.00;63593.47;4870475;29;46462;-83
2021/07/26 04:24:39;;;;;;;;;16.00;13.00;;;;;-143.39;100.00;63593.47;4885085;29;45290;-83
2021/07/26 04:27:04;;;;;;;;;16.50;15.25;;;;;-143.39;100.00;63593.47;4885813;29;46596;-83
2021/07/26 04:29:30;;;;;;;;;13.75;12.75;;;;;-143.39;100.00;63593.47;4868913;29;45600;-83
2021/07/26 04:31:55;;;;;;;;;17.00;15.25;;;;;-143.39;100.00;63593.47;4885700;29;47418;-83
2021/07/26 04:34:20;;;;;;;;;16.00;11.00;;;;;-143.39;100.00;63593.47;4885309;29;45611;-83
2021/07/26 04:36:45;;;;;;;;;12.50;10.25;;;;;-143.39;100.00;63593.47;4885530;29;45422;-83
2021/07/26 04:39:12;;;;;;;;;14.50;12.50;;;;;-143.39;100.00;63593.47;4885546;29;45534;-83
2021/07/26 04:41:37;;;;;;;;;15.50;14.00;;;;;-143.39;100.00;63593.47;4886540;29;46350;-83
2021/07/26 04:44:04;;;;;;;;;13.25;10.50;;;;;-143.39;100.00;63593.47;4868228;29;45402;-83
2021/07/26 04:46:29;;;;;;;;;15.25;12.50;;;;;-143.39;100.00;63593.47;4885346;29;45438;-83
2021/07/26 04:48:54;;;;;;;;;13.75;12.25;;;;;-143.39;100.00;63593.47;4884998;29;45374;-83
2021/07/26 04:51:20;;;;;;;;;14.25;13.25;;;;;-143.39;100.00;63593.47;4885214;29;45434;-82
2021/07/26 04:53:45;;;;;;;;;15.00;12.50;;;;;-143.39;100.00;63593.47;4899839;29;45708;-83
2021/07/26 04:56:10;;;;;;;;;12.00;10.00;;;;;-143.39;100.00;63593.47;4875795;29;45508;-83
2021/07/26 04:58:37;;;;;;;;;9.50;8.50;;;;;-143.39;100.00;63593.47;4886396;29;50768;-83
2021/07/26 05:01:02;;;;;;;;;10.25;10.25;;;;;-143.39;100.00;63593.47;4885904;29;45902;-83
2021/07/26 05:03:27;;;;;;;;;13.50;10.00;;;;;-143.39;100.00;63593.47;4886180;29;45277;-83
2021/07/26 05:05:53;;;;;;;;;12.50;11.00;;;;;-143.39;100.00;63593.47;4885831;29;45507;-82
2021/07/26 05:08:18;;;;;;;;;12.25;11.25;;;;;-143.39;100.00;63593.47;4884900;29;45451;-82
2021/07/26 05:10:46;;;;;;;;;8.75;8.75;;;;;-143.39;100.00;63593.47;4895747;29;48341;-83
2021/07/26 05:13:11;;;;;;;;;11.25;8.75;;;;;-143.39;100.00;63593.47;4898658;29;45275;-83
2021/07/26 05:15:36;;;;;;;;;11.00;9.00;;;;;-143.39;100.00;63593.47;4884926;29;45576;-83
2021/07/26 05:18:02;;;;;;;;;12.25;9.50;;;;;-143.39;100.00;63593.47;4884495;29;45416;-83
2021/07/26 05:20:27;;;;;;;;;11.00;10.00;;;;;-143.39;100.00;63593.47;4884273;29;45506;-83
2021/07/26 05:22:53;;;;;;;;;10.00;8.75;;;;;-143.39;100.00;63593.47;4882762;29;45250;-83
2021/07/26 05:25:18;;;;;;;;;11.75;9.50;;;;;-143.39;100.00;63593.47;4885004;29;45345;-83
2021/07/26 05:27:44;;;;;;;;;12.00;9.00;;;;;-143.39;100.00;63593.47;4885980;29;45661;-83
2021/07/26 05:30:10;;;;;;;;;14.75;10.00;;;;;-143.39;100.00;63593.47;4884642;29;46205;-83
2021/07/26 05:32:35;;;;;;;;;9.75;9.75;;;;;-143.39;100.00;63593.47;4884813;29;45425;-83
2021/07/26 05:35:01;;;;;;;;;8.00;8.00;;;;;-143.39;100.00;63593.47;4892289;29;45173;-83
2021/07/26 05:37:26;;;;;;;;;9.00;8.25;;;;;-143.39;100.00;63593.47;4884328;29;45461;-83
2021/07/26 05:39:51;;;;;;;;;16.50;10.25;;;;;-143.39;100.00;63593.47;4867570;29;47491;-83
2021/07/26 05:42:18;;;;;;;;;9.00;8.00;;;;;-143.39;100.00;63593.47;4884691;29;45278;-83
2021/07/26 05:44:43;;;;;;;;;7.50;5.75;;;;;-143.39;100.00;63593.47;4885772;29;45297;-82
2021/07/26 05:47:09;;;;;;;;;11.00;8.75;;;;;-143.39;100.00;63593.47;4902356;29;45241;-83
2021/07/26 05:49:35;;;;;;;;;7.75;7.50;;;;;-143.39;100.00;63593.47;4887778;29;45347;-83
2021/07/26 05:52:01;;;;;;;;;7.25;7.25;;;;;-143.39;100.00;63593.47;4868768;29;45256;-83
2021/07/26 05:54:27;;;;;;;;;10.00;10.00;;;;;-143.39;100.00;63593.47;4885168;29;45441;-83
2021/07/26 05:56:52;;;;;;;;;8.75;8.00;;;;;-143.39;100.00;63593.47;4893463;29;45410;-83
2021/07/26 05:59:18;;;;;;;;;10.25;8.25;;;;;-143.39;100.00;63593.47;4883129;29;48140;-83
2021/07/26 06:01:47;;;;;;;;;9.25;8.25;;;;;-143.39;100.00;63593.47;4884291;29;45476;-83
2021/07/26 06:04:17;;;;;;;;;8.00;7.00;;;;;-143.39;100.00;63593.47;4884266;29;45225;-83
2021/07/26 06:06:53;;;;;;;;;13.00;8.00;;;;;-143.39;100.00;63593.47;4884116;29;45357;-83
2021/07/26 06:09:23;;;;;;;;;8.25;6.75;;;;;-143.39;100.00;63593.47;4868422;29;47326;-83
2021/07/26 06:11:49;;;;;;;;;11.00;8.25;;;;;-143.39;100.00;63593.47;4903906;29;45484;-84
2021/07/26 06:14:16;;;;;;;;;9.00;9.00;;;;;-143.39;100.00;63593.47;4886896;29;45255;-83
2021/07/26 06:16:43;;;;;;;;;12.00;8.50;;;;;-143.39;100.00;63593.47;4903006;29;45417;-83
2021/07/26 06:19:09;;;;;;;;;10.75;9.25;;;;;-143.39;100.00;63593.47;4884951;29;47112;-82
2021/07/26 06:21:47;;;;;;;;;10.00;8.00;;;;;-143.39;100.00;63593.47;4902991;29;45570;-82
2021/07/26 06:24:13;;;;;;;;;8.75;8.00;;;;;-143.39;100.00;63593.47;4902910;29;45203;-83
2021/07/26 06:26:39;;;;;;;;;11.75;9.00;;;;;-143.39;100.00;63593.47;4902999;29;45263;-82
2021/07/26 06:29:05;;;;;;;;;13.00;7.25;;;;;-143.39;100.00;63593.47;4902590;29;45554;-82
2021/07/26 06:31:34;;;;;;;;;4.25;4.00;;;;;-143.39;100.00;63593.47;4903520;29;45249;-83
2021/07/26 06:34:01;;;;;;;;;9.50;7.75;;;;;-143.39;100.00;63593.47;4905409;29;45255;-83
2021/07/26 06:36:27;;;;;;;;;14.00;10.00;;;;;-143.39;100.00;63593.47;4907449;29;45214;-82
2021/07/26 06:38:53;;;;;;;;;12.00;9.50;;;;;-143.39;100.00;63593.47;4905715;29;45386;-82
2021/07/26 06:41:18;;;;;;;;;9.00;9.00;;;;;-143.39;100.00;63593.47;4889196;29;45272;-83
2021/07/26 06:43:45;;;;;;;;;10.75;10.75;;;;;-143.39;100.00;63593.47;4890771;29;45563;-82
2021/07/26 06:46:11;;;;;;;;;11.25;9.00;;;;;-143.39;100.00;63593.47;4887322;29;45218;-83
2021/07/26 06:48:36;;;;;;;;;13.25;10.50;;;;;-143.39;100.00;63593.47;4886850;29;46401;-83
2021/07/26 06:51:05;;;;;;;;;11.75;10.00;;;;;-143.39;100.00;63593.47;4887339;29;45305;-82
2021/07/26 06:53:32;;;;;;;;;11.00;9.25;;;;;-143.39;100.00;63593.47;4870160;29;45387;-83
2021/07/26 06:56:06;;;;;;;;;12.75;12.25;;;;;-143.39;100.00;63593.47;4892457;29;45535;-83
2021/07/26 06:58:32;;;;;;;;;17.25;11.00;;;;;-143.39;100.00;63593.47;4889067;29;45503;-82
2021/07/26 07:01:05;;;;;;;;;13.75;11.75;;;;;-143.39;100.00;63593.47;4871286;29;45213;-82
2021/07/26 07:03:30;;;;;;;;;17.25;12.25;;;;;-143.39;100.00;63593.47;4886781;29;45375;-82
2021/07/26 07:06:09;;;;;;;;;13.25;12.75;;;;;-143.39;100.00;63593.47;4886749;29;45592;-83
2021/07/26 07:08:35;;;;;;;;;15.75;11.50;;;;;-143.39;100.00;63593.47;4876567;29;47120;-83
2021/07/26 07:11:06;;;;;;;;;14.00;11.50;;;;;-143.39;100.00;63593.47;4905325;29;45249;-83
2021/07/26 07:13:35;;;;;;;;;12.00;11.50;;;;;-143.39;100.00;63593.47;4897990;29;45412;-83
2021/07/26 07:16:01;;;;;;;;;11.00;9.25;;;;;-143.39;100.00;63593.47;4886540;29;45510;-83
2021/07/26 07:18:27;;;;;;;;;16.25;13.00;;;;;-143.39;100.00;63593.47;4870443;29;46221;-83
2021/07/26 07:20:52;;;;;;;;;11.50;11.50;;;;;-143.39;100.00;63593.47;4887795;29;45434;-82
2021/07/26 07:23:18;;;;;;;;;12.00;10.75;;;;;-143.39;100.00;63593.47;4901511;29;45624;-82
2021/07/26 07:25:43;;;;;;;;;11.25;10.25;;;;;-143.39;100.00;63593.47;4886238;29;45336;-82
2021/07/26 07:28:08;;;;;;;;;10.00;8.50;;;;;-143.39;100.00;63593.47;4869279;29;46955;-82
2021/07/26 07:30:34;;;;;;;;;14.75;12.50;;;;;-143.39;100.00;63593.47;4887964;29;45480;-82
2021/07/26 07:33:00;;;;;;;;;12.50;9.00;;;;;-143.39;100.00;63593.47;4897294;29;45359;-83
2021/07/26 07:35:25;;;;;;;;;17.50;13.50;;;;;-143.39;100.00;63593.47;4869231;29;46061;-83
2021/07/26 07:37:54;;;;;;;;;15.50;12.75;;;;;-143.39;100.00;63593.47;4886174;29;45459;-82
2021/07/26 07:40:22;;;;;;;;;14.00;12.50;;;;;-143.39;100.00;63593.47;4886494;29;45628;-82
2021/07/26 07:42:48;;;;;;;;;14.75;13.50;;;;;-143.39;100.00;63593.47;4888343;29;45316;-81
2021/07/26 07:45:13;;;;;;;;;13.75;12.50;;;;;-143.39;100.00;63593.47;4887206;29;45231;-82
2021/07/26 07:47:40;;;;;;;;;19.00;12.00;;;;;-143.39;100.00;63593.47;4869442;29;47416;-82
2021/07/26 07:50:06;;;;;;;;;17.75;13.50;;;;;-143.39;100.00;63593.47;4885879;29;45393;-82
2021/07/26 07:52:32;;;;;;;;;15.75;12.25;;;;;-143.39;100.00;63593.47;4886495;29;45301;-82
2021/07/26 07:54:57;;;;;;;;;19.00;13.50;;;;;-143.39;100.00;63593.47;4886046;29;45627;-82
2021/07/26 07:57:24;;;;;;;;;17.75;16.00;;;;;-143.39;100.00;63593.47;4893930;29;46445;-83
2021/07/26 07:59:50;;;;;;;;;18.25;14.50;;;;;-143.39;100.00;63593.47;4885729;29;45244;-83
2021/07/26 08:02:15;;;;;;;;;17.75;14.75;;;;;-143.39;100.00;63593.47;4886417;29;45294;-83
2021/07/26 08:04:41;;;;;;;;;19.25;16.00;;;;;-143.39;100.00;63593.47;4887511;29;45417;-82
2021/07/26 08:07:07;;;;;;;;;20.75;15.00;;;;;-143.39;100.00;63593.47;4887638;29;45340;-83
2021/07/26 08:09:32;;;;;;;;;24.25;17.00;;;;;-143.39;100.00;63593.47;4889858;29;45530;-83
2021/07/26 08:11:58;;;;;;;;;16.50;15.00;;;;;-143.39;100.00;63593.47;4903456;29;45426;-82
2021/07/26 08:14:23;;;;;;;;;20.00;16.25;;;;;-143.39;100.00;63593.47;4890017;29;45344;-83
2021/07/26 08:16:49;;;;;;;;;23.00;16.25;;;;;-143.39;100.00;63593.47;4885477;29;46437;-83
2021/07/26 08:19:14;;;;;;;;;19.75;19.00;;;;;-143.39;100.00;63593.47;4885074;29;45490;-83
2021/07/26 08:21:39;;;;;;;;;19.75;16.00;;;;;-143.39;100.00;63593.47;4885790;29;45397;-83
2021/07/26 08:24:05;;;;;;;;;21.25;17.50;;;;;-143.39;100.00;63593.47;4885540;29;45296;-83
2021/07/26 08:26:30;;;;;;;;;18.00;14.25;;;;;-143.39;100.00;63593.47;4885815;29;45241;-82
2021/07/26 08:28:56;;;;;;;;;17.50;15.50;;;;;-143.39;100.00;63593.47;4887414;29;45504;-83
2021/07/26 08:31:22;;;;;;;;;16.75;14.25;;;;;-143.39;100.00;63593.47;4900720;29;45319;-83
2021/07/26 08:33:47;;;;;;;;;22.25;16.25;;;;;-143.39;100.00;63593.47;4885080;29;45141;-83
2021/07/26 08:36:13;;;;;;;;;18.75;15.25;;;;;-143.39;100.00;63593.47;4885323;29;46479;-83
2021/07/26 08:38:38;;;;;;;;;26.50;16.25;;;;;-143.39;100.00;63593.47;4885560;29;45458;-82
2021/07/26 08:41:04;;;;;;;;;17.00;14.25;;;;;-143.39;100.00;63593.47;4885754;29;45225;-82
2021/07/26 08:43:29;;;;;;;;;18.00;14.00;;;;;-143.39;100.00;63593.47;4885651;29;45249;-83
2021/07/26 08:45:55;;;;;;;;;19.25;16.25;;;;;-143.39;100.00;63593.47;4885624;29;45237;-83
2021/07/26 08:48:24;;;;;;;;;23.00;16.50;;;;;-143.39;100.00;63593.47;4885913;29;45387;-83
2021/07/26 08:50:56;;;;;;;;;18.75;16.25;;;;;-143.39;100.00;63593.47;4887656;29;45383;-82
2021/07/26 08:53:24;;;;;;;;;15.50;10.50;;;;;-143.39;100.00;63593.47;4886097;29;45323;-83
2021/07/26 08:55:50;;;;;;;;;13.50;11.50;;;;;-143.39;100.00;63593.47;4888886;29;45394;-83
2021/07/26 08:58:16;;;;;;;;;15.50;14.50;;;;;-143.39;100.00;63593.47;4870756;29;45339;-83
2021/07/26 09:00:42;;;;;;;;;13.75;9.00;;;;;-143.39;100.00;63593.47;4885373;29;45297;-83
2021/07/26 09:03:08;;;;;;;;;15.50;13.00;;;;;-143.39;100.00;63593.47;4868236;29;45959;-83
2021/07/26 09:05:34;;;;;;;;;15.00;11.00;;;;;-143.39;100.00;63593.47;4885765;29;45416;-83
2021/07/26 09:08:01;;;;;;;;;13.75;11.25;;;;;-143.39;100.00;63593.47;4868448;29;45408;-83
2021/07/26 09:10:28;;;;;;;;;11.00;7.25;;;;;-143.39;100.00;63593.47;4878555;29;45392;-83
2021/07/26 09:12:57;;;;;;;;;15.25;13.75;;;;;-143.39;100.00;63593.47;4904947;29;45411;-83
2021/07/26 09:15:30;;;;;;;;;15.50;13.00;;;;;-143.39;100.00;63593.47;4888731;29;48310;-83
2021/07/26 09:18:06;;;;;;;;;15.75;14.50;;;;;-143.39;100.00;63593.47;4887226;29;45626;-83
2021/07/26 09:20:35;;;;;;;;;17.25;13.00;;;;;-143.39;100.00;63593.47;4887909;29;45242;-83
2021/07/26 09:23:14;;;;;;;;;14.25;11.50;;;;;-143.39;100.00;63593.47;4885494;29;45321;-83
2021/07/26 09:25:44;;;;;;;;;16.00;11.50;;;;;-143.39;100.00;63593.47;4885343;29;45453;-83
2021/07/26 09:28:22;;;;;;;;;14.25;11.75;;;;;-143.39;100.00;63593.47;4885210;29;45485;-83
2021/07/26 09:30:51;;;;;;;;;16.25;13.25;;;;;-143.39;100.00;63593.47;4883448;29;45333;-83
2021/07/26 09:33:20;;;;;;;;;16.50;13.00;;;;;-143.39;100.00;63593.47;4884701;29;45473;-82
2021/07/26 09:36:18;;;;;;;;;13.00;11.25;;;;;-143.39;100.00;63593.47;4885957;29;45549;-83
2021/07/26 09:38:53;;;;;;;;;15.25;15.25;;;;;-143.39;100.00;63593.47;4868487;29;45684;-83
2021/07/26 09:41:41;;;;;;;;;16.75;11.00;;;;;-143.39;100.00;63593.47;4884880;29;45419;-83
2021/07/26 09:44:07;;;;;;;;;16.00;13.25;;;;;-143.39;100.00;63593.47;4897665;29;45571;-82
2021/07/26 09:46:32;;;;;;;;;14.25;13.00;;;;;-143.39;100.00;63593.47;4867799;29;47515;-83
2021/07/26 09:49:14;;;;;;;;;13.00;13.00;;;;;-143.39;100.00;63593.47;4884373;29;45292;-83
2021/07/26 09:51:41;;;;;;;;;17.75;15.00;;;;;-143.39;100.00;63593.47;4883607;29;45324;-83
2021/07/26 09:54:07;;;;;;;;;12.25;12.25;;;;;-143.39;100.00;63593.47;4883172;29;45629;-83
2021/07/26 09:56:33;;;;;;;;;17.25;15.75;;;;;-143.39;100.00;63593.47;4891768;29;45274;-83
2021/07/26 09:59:00;;;;;;;;;12.75;10.50;;;;;-143.39;100.00;63593.47;4886392;29;46111;-83
2021/07/26 10:01:26;;;;;;;;;16.00;14.50;;;;;-143.39;100.00;63593.47;4885676;29;45544;-83
2021/07/26 10:03:52;;;;;;;;;17.50;11.25;;;;;-143.39;100.00;63593.47;4884033;29;45640;-83
2021/07/26 10:06:18;;;;;;;;;14.75;14.25;;;;;-143.39;100.00;63593.47;4884223;29;45403;-83
2021/07/26 10:08:44;;;;;;;;;16.75;13.00;;;;;-143.39;100.00;63593.47;4886458;29;45406;-83
2021/07/26 10:11:10;;;;;;;;;14.25;14.25;;;;;-143.39;100.00;63593.47;4886179;29;45551;-83
2021/07/26 10:13:38;;;;;;;;;13.25;12.75;;;;;-143.39;100.00;63593.47;4898219;29;45453;-82
2021/07/26 10:16:05;;;;;;;;;15.25;13.50;;;;;-143.39;100.00;63593.47;4870218;29;46570;-83
2021/07/26 10:18:30;;;;;;;;;15.25;14.50;;;;;-143.39;100.00;63593.47;4869999;29;45319;-83
2021/07/26 10:21:05;;;;;;;;;16.00;12.25;;;;;-143.39;100.00;63593.47;4870752;29;45371;-83
2021/07/26 10:23:35;;;;;;;;;17.25;15.75;;;;;-143.39;100.00;63593.47;4889794;29;45285;-83
2021/07/26 10:26:05;;;;;;;;;15.00;15.00;;;;;-143.39;100.00;63593.47;4872147;29;47197;-83
2021/07/26 10:28:34;;;;;;;;;19.00;18.00;;;;;-143.39;100.00;63593.47;4888313;29;45428;-83
2021/07/26 10:30:59;;;;;;;;;18.25;15.25;;;;;-143.39;100.00;63593.47;4887349;29;45427;-82
2021/07/26 10:33:25;;;;;;;;;15.75;14.00;;;;;-143.39;100.00;63593.47;4886877;29;45350;-83
2021/07/26 10:35:54;;;;;;;;;19.50;15.50;;;;;-143.39;100.00;63593.47;4886906;29;45987;-83
2021/07/26 10:38:41;;;;;;;;;16.50;14.25;;;;;-143.39;100.00;63593.47;4887399;29;45260;-83
2021/07/26 10:41:06;;;;;;;;;19.75;16.00;;;;;-143.39;100.00;63593.47;4895585;29;45425;-83
2021/07/26 10:43:54;;;;;;;;;20.00;16.50;;;;;-143.39;100.00;63593.47;4906227;29;45304;-83
2021/07/26 10:46:20;;;;;;;;;15.25;13.50;;;;;-143.39;100.00;63593.47;4906912;29;45418;-85
2021/07/26 10:48:50;;;;;;;;;14.00;14.00;;;;;-143.39;100.00;63593.47;4891081;29;45442;-83
2021/07/26 10:51:42;;;;;;;;;22.75;16.75;;;;;-143.39;100.00;63593.47;4889207;29;45237;-84
2021/07/26 10:54:08;;;;;;;;;17.25;13.00;;;;;-143.39;100.00;63593.47;4905943;29;45301;-84
2021/07/26 10:57:02;;;;;;;;;12.00;9.25;;;;;-143.39;100.00;63593.47;4898357;29;45642;-84
2021/07/26 10:59:50;;;;;;;;;16.00;13.75;;;;;-143.39;100.00;63593.47;4886768;29;45457;-84